sensor_id;sensor_type;location;lat;lon;timestamp;P1;durP1;ratioP1;P2;durP2;ratioP2
42714;SDS011;28351;51.480;5.706;2023-02-15T00:01:50;36.88;;;16.48;;
42714;SDS011;28351;51.480;5.706;2023-02-15T00:04:18;41.03;;;16.80;;
42714;SDS011;28351;51.480;5.706;2023-02-15T00:06:46;43.88;;;16.33;;
42714;SDS011;28351;51.480;5.706;2023-02-15T00:09:15;41.10;;;17.38;;
42714;SDS011;28351;51.480;5.706;2023-02-15T00:11:41;36.13;;;15.73;;
42714;SDS011;28351;51.480;5.706;2023-02-15T00:16:40;44.25;;;17.33;;
42714;SDS011;28351;51.480;5.706;2023-02-15T00:19:07;42.15;;;17.08;;
42714;SDS011;28351;51.480;5.706;2023-02-15T00:21:34;40.88;;;17.35;;
42714;SDS011;28351;51.480;5.706;2023-02-15T00:24:01;40.85;;;17.80;;
42714;SDS011;28351;51.480;5.706;2023-02-15T00:26:29;38.75;;;16.50;;
42714;SDS011;28351;51.480;5.706;2023-02-15T00:28:55;41.00;;;16.92;;
42714;SDS011;28351;51.480;5.706;2023-02-15T00:31:23;42.92;;;18.50;;
42714;SDS011;28351;51.480;5.706;2023-02-15T00:33:49;44.72;;;17.70;;
42714;SDS011;28351;51.480;5.706;2023-02-15T00:36:14;41.08;;;15.95;;
42714;SDS011;28351;51.480;5.706;2023-02-15T00:38:40;44.78;;;17.25;;
42714;SDS011;28351;51.480;5.706;2023-02-15T00:41:06;42.20;;;17.15;;
42714;SDS011;28351;51.480;5.706;2023-02-15T00:43:33;40.58;;;17.20;;
42714;SDS011;28351;51.480;5.706;2023-02-15T00:45:59;40.58;;;16.20;;
42714;SDS011;28351;51.480;5.706;2023-02-15T00:48:25;39.42;;;17.35;;
42714;SDS011;28351;51.480;5.706;2023-02-15T00:50:52;38.72;;;16.60;;
42714;SDS011;28351;51.480;5.706;2023-02-15T00:53:19;39.10;;;17.02;;
42714;SDS011;28351;51.480;5.706;2023-02-15T00:55:45;35.08;;;15.98;;
42714;SDS011;28351;51.480;5.706;2023-02-15T00:58:11;37.53;;;16.38;;
42714;SDS011;28351;51.480;5.706;2023-02-15T01:00:37;36.72;;;16.38;;
42714;SDS011;28351;51.480;5.706;2023-02-15T01:03:04;38.03;;;15.75;;
42714;SDS011;28351;51.480;5.706;2023-02-15T01:05:30;39.10;;;16.98;;
42714;SDS011;28351;51.480;5.706;2023-02-15T01:07:57;41.75;;;16.30;;
42714;SDS011;28351;51.480;5.706;2023-02-15T01:10:23;38.90;;;15.38;;
42714;SDS011;28351;51.480;5.706;2023-02-15T01:12:49;39.67;;;16.30;;
42714;SDS011;28351;51.480;5.706;2023-02-15T01:15:19;35.42;;;16.60;;
42714;SDS011;28351;51.480;5.706;2023-02-15T01:17:45;37.42;;;16.23;;
42714;SDS011;28351;51.480;5.706;2023-02-15T01:20:16;34.58;;;16.13;;
42714;SDS011;28351;51.480;5.706;2023-02-15T01:22:42;39.83;;;15.02;;
42714;SDS011;28351;51.480;5.706;2023-02-15T01:25:08;38.60;;;15.50;;
42714;SDS011;28351;51.480;5.706;2023-02-15T01:27:34;38.85;;;14.95;;
42714;SDS011;28351;51.480;5.706;2023-02-15T01:30:00;45.42;;;16.65;;
42714;SDS011;28351;51.480;5.706;2023-02-15T01:32:25;36.85;;;14.63;;
42714;SDS011;28351;51.480;5.706;2023-02-15T01:34:51;41.72;;;16.48;;
42714;SDS011;28351;51.480;5.706;2023-02-15T01:37:17;43.58;;;16.58;;
42714;SDS011;28351;51.480;5.706;2023-02-15T01:39:43;36.63;;;15.45;;
42714;SDS011;28351;51.480;5.706;2023-02-15T01:42:10;32.40;;;14.85;;
42714;SDS011;28351;51.480;5.706;2023-02-15T01:48:00;35.38;;;14.88;;
42714;SDS011;28351;51.480;5.706;2023-02-15T01:52:31;29.17;;;13.98;;
42714;SDS011;28351;51.480;5.706;2023-02-15T01:54:57;37.58;;;15.77;;
42714;SDS011;28351;51.480;5.706;2023-02-15T01:57:23;39.08;;;15.27;;
42714;SDS011;28351;51.480;5.706;2023-02-15T01:59:53;44.45;;;16.90;;
42714;SDS011;28351;51.480;5.706;2023-02-15T02:02:23;32.97;;;15.13;;
42714;SDS011;28351;51.480;5.706;2023-02-15T02:04:52;33.13;;;15.15;;
42714;SDS011;28351;51.480;5.706;2023-02-15T02:07:23;31.33;;;13.65;;
42714;SDS011;28351;51.480;5.706;2023-02-15T02:09:51;44.60;;;16.42;;
42714;SDS011;28351;51.480;5.706;2023-02-15T02:12:17;35.55;;;15.13;;
42714;SDS011;28351;51.480;5.706;2023-02-15T02:14:45;34.67;;;14.98;;
42714;SDS011;28351;51.480;5.706;2023-02-15T02:17:14;34.13;;;14.30;;
42714;SDS011;28351;51.480;5.706;2023-02-15T02:28:09;36.97;;;14.88;;
42714;SDS011;28351;51.480;5.706;2023-02-15T02:30:49;35.13;;;13.32;;
42714;SDS011;28351;51.480;5.706;2023-02-15T02:33:36;33.22;;;14.35;;
42714;SDS011;28351;51.480;5.706;2023-02-15T02:36:42;29.65;;;13.40;;
42714;SDS011;28351;51.480;5.706;2023-02-15T02:39:35;30.50;;;12.90;;
42714;SDS011;28351;51.480;5.706;2023-02-15T02:45:21;29.10;;;13.35;;
42714;SDS011;28351;51.480;5.706;2023-02-15T02:47:55;33.50;;;13.60;;
42714;SDS011;28351;51.480;5.706;2023-02-15T02:50:26;37.85;;;14.73;;
42714;SDS011;28351;51.480;5.706;2023-02-15T02:52:54;33.67;;;14.65;;
42714;SDS011;28351;51.480;5.706;2023-02-15T02:55:25;27.98;;;13.05;;
42714;SDS011;28351;51.480;5.706;2023-02-15T02:58:00;28.67;;;13.05;;
42714;SDS011;28351;51.480;5.706;2023-02-15T03:00:40;36.42;;;13.63;;
42714;SDS011;28351;51.480;5.706;2023-02-15T03:03:20;32.13;;;12.27;;
42714;SDS011;28351;51.480;5.706;2023-02-15T03:05:56;36.28;;;14.07;;
42714;SDS011;28351;51.480;5.706;2023-02-15T03:08:26;32.55;;;12.85;;
42714;SDS011;28351;51.480;5.706;2023-02-15T03:10:57;32.42;;;12.52;;
42714;SDS011;28351;51.480;5.706;2023-02-15T03:13:25;29.13;;;13.27;;
42714;SDS011;28351;51.480;5.706;2023-02-15T03:15:51;30.88;;;13.02;;
42714;SDS011;28351;51.480;5.706;2023-02-15T03:18:39;27.80;;;11.57;;
42714;SDS011;28351;51.480;5.706;2023-02-15T03:21:15;28.25;;;13.25;;
42714;SDS011;28351;51.480;5.706;2023-02-15T03:23:48;32.42;;;12.70;;
42714;SDS011;28351;51.480;5.706;2023-02-15T03:26:17;35.55;;;13.43;;
42714;SDS011;28351;51.480;5.706;2023-02-15T03:28:45;31.50;;;13.93;;
42714;SDS011;28351;51.480;5.706;2023-02-15T03:31:15;27.35;;;12.10;;
42714;SDS011;28351;51.480;5.706;2023-02-15T03:33:57;29.83;;;13.20;;
42714;SDS011;28351;51.480;5.706;2023-02-15T03:36:41;26.45;;;12.70;;
42714;SDS011;28351;51.480;5.706;2023-02-15T03:42:04;30.42;;;12.93;;
42714;SDS011;28351;51.480;5.706;2023-02-15T03:44:41;27.83;;;12.63;;
42714;SDS011;28351;51.480;5.706;2023-02-15T03:47:25;31.80;;;12.65;;
42714;SDS011;28351;51.480;5.706;2023-02-15T03:50:07;30.02;;;11.85;;
42714;SDS011;28351;51.480;5.706;2023-02-15T03:52:55;28.92;;;11.90;;
42714;SDS011;28351;51.480;5.706;2023-02-15T03:55:23;27.52;;;12.18;;
42714;SDS011;28351;51.480;5.706;2023-02-15T03:57:49;29.13;;;12.30;;
42714;SDS011;28351;51.480;5.706;2023-02-15T04:00:35;29.38;;;11.98;;
42714;SDS011;28351;51.480;5.706;2023-02-15T04:06:00;26.95;;;12.02;;
42714;SDS011;28351;51.480;5.706;2023-02-15T04:08:27;36.03;;;12.75;;
42714;SDS011;28351;51.480;5.706;2023-02-15T04:11:12;30.80;;;11.48;;
42714;SDS011;28351;51.480;5.706;2023-02-15T04:13:37;27.08;;;11.88;;
42714;SDS011;28351;51.480;5.706;2023-02-15T04:16:03;25.50;;;11.70;;
42714;SDS011;28351;51.480;5.706;2023-02-15T04:18:30;27.42;;;11.65;;
42714;SDS011;28351;51.480;5.706;2023-02-15T04:21:20;27.63;;;11.63;;
42714;SDS011;28351;51.480;5.706;2023-02-15T04:24:05;25.85;;;10.75;;
42714;SDS011;28351;51.480;5.706;2023-02-15T04:26:49;26.30;;;12.27;;
42714;SDS011;28351;51.480;5.706;2023-02-15T04:29:18;27.48;;;13.00;;
42714;SDS011;28351;51.480;5.706;2023-02-15T04:31:47;29.38;;;12.95;;
42714;SDS011;28351;51.480;5.706;2023-02-15T04:34:14;30.58;;;12.00;;
42714;SDS011;28351;51.480;5.706;2023-02-15T04:36:40;29.38;;;11.55;;
42714;SDS011;28351;51.480;5.706;2023-02-15T04:39:06;27.75;;;12.88;;
42714;SDS011;28351;51.480;5.706;2023-02-15T04:41:32;34.05;;;13.68;;
42714;SDS011;28351;51.480;5.706;2023-02-15T04:43:59;30.55;;;13.25;;
42714;SDS011;28351;51.480;5.706;2023-02-15T04:46:25;31.33;;;12.57;;
42714;SDS011;28351;51.480;5.706;2023-02-15T04:48:51;30.17;;;12.02;;
42714;SDS011;28351;51.480;5.706;2023-02-15T04:51:17;27.80;;;12.25;;
42714;SDS011;28351;51.480;5.706;2023-02-15T04:53:44;25.80;;;11.45;;
42714;SDS011;28351;51.480;5.706;2023-02-15T04:56:10;32.58;;;12.57;;
42714;SDS011;28351;51.480;5.706;2023-02-15T04:58:35;28.90;;;12.35;;
42714;SDS011;28351;51.480;5.706;2023-02-15T05:01:02;27.90;;;11.95;;
42714;SDS011;28351;51.480;5.706;2023-02-15T05:03:28;29.90;;;11.73;;
42714;SDS011;28351;51.480;5.706;2023-02-15T05:05:53;31.52;;;11.85;;
42714;SDS011;28351;51.480;5.706;2023-02-15T05:08:19;32.60;;;12.45;;
42714;SDS011;28351;51.480;5.706;2023-02-15T05:10:47;28.40;;;12.18;;
42714;SDS011;28351;51.480;5.706;2023-02-15T05:13:13;26.98;;;11.80;;
42714;SDS011;28351;51.480;5.706;2023-02-15T05:15:38;29.23;;;12.43;;
42714;SDS011;28351;51.480;5.706;2023-02-15T05:18:04;31.92;;;13.00;;
42714;SDS011;28351;51.480;5.706;2023-02-15T05:20:31;28.48;;;12.45;;
42714;SDS011;28351;51.480;5.706;2023-02-15T05:22:57;32.55;;;12.00;;
42714;SDS011;28351;51.480;5.706;2023-02-15T05:25:22;36.10;;;14.15;;
42714;SDS011;28351;51.480;5.706;2023-02-15T05:28:08;33.80;;;12.48;;
42714;SDS011;28351;51.480;5.706;2023-02-15T05:30:49;27.92;;;12.27;;
42714;SDS011;28351;51.480;5.706;2023-02-15T05:33:27;27.98;;;12.27;;
42714;SDS011;28351;51.480;5.706;2023-02-15T05:35:53;28.45;;;11.88;;
42714;SDS011;28351;51.480;5.706;2023-02-15T05:38:18;30.42;;;12.68;;
42714;SDS011;28351;51.480;5.706;2023-02-15T05:40:44;27.88;;;12.70;;
42714;SDS011;28351;51.480;5.706;2023-02-15T05:43:09;30.02;;;12.95;;
42714;SDS011;28351;51.480;5.706;2023-02-15T05:45:35;37.95;;;12.82;;
42714;SDS011;28351;51.480;5.706;2023-02-15T05:48:01;28.35;;;13.38;;
42714;SDS011;28351;51.480;5.706;2023-02-15T05:50:26;36.60;;;12.52;;
42714;SDS011;28351;51.480;5.706;2023-02-15T05:52:52;28.38;;;12.63;;
42714;SDS011;28351;51.480;5.706;2023-02-15T05:55:17;33.17;;;12.68;;
42714;SDS011;28351;51.480;5.706;2023-02-15T05:57:43;34.80;;;12.32;;
42714;SDS011;28351;51.480;5.706;2023-02-15T06:00:09;30.38;;;12.45;;
42714;SDS011;28351;51.480;5.706;2023-02-15T06:02:36;36.60;;;13.55;;
42714;SDS011;28351;51.480;5.706;2023-02-15T06:05:03;36.50;;;13.88;;
42714;SDS011;28351;51.480;5.706;2023-02-15T06:07:29;27.38;;;12.48;;
42714;SDS011;28351;51.480;5.706;2023-02-15T06:09:55;29.13;;;12.32;;
42714;SDS011;28351;51.480;5.706;2023-02-15T06:12:21;37.50;;;13.35;;
42714;SDS011;28351;51.480;5.706;2023-02-15T06:14:46;34.55;;;14.05;;
42714;SDS011;28351;51.480;5.706;2023-02-15T06:17:12;36.05;;;12.82;;
42714;SDS011;28351;51.480;5.706;2023-02-15T06:19:40;32.42;;;13.38;;
42714;SDS011;28351;51.480;5.706;2023-02-15T06:22:08;34.65;;;14.05;;
42714;SDS011;28351;51.480;5.706;2023-02-15T06:24:34;31.27;;;12.93;;
42714;SDS011;28351;51.480;5.706;2023-02-15T06:27:00;32.53;;;13.32;;
42714;SDS011;28351;51.480;5.706;2023-02-15T06:29:25;30.38;;;13.20;;
42714;SDS011;28351;51.480;5.706;2023-02-15T06:31:51;33.42;;;13.70;;
42714;SDS011;28351;51.480;5.706;2023-02-15T06:34:16;33.20;;;13.20;;
42714;SDS011;28351;51.480;5.706;2023-02-15T06:36:42;31.50;;;13.23;;
42714;SDS011;28351;51.480;5.706;2023-02-15T06:39:07;32.58;;;13.13;;
42714;SDS011;28351;51.480;5.706;2023-02-15T06:41:33;35.15;;;14.45;;
42714;SDS011;28351;51.480;5.706;2023-02-15T06:43:59;32.45;;;12.70;;
42714;SDS011;28351;51.480;5.706;2023-02-15T06:46:25;30.42;;;13.00;;
42714;SDS011;28351;51.480;5.706;2023-02-15T06:48:50;31.70;;;11.95;;
42714;SDS011;28351;51.480;5.706;2023-02-15T06:51:16;37.33;;;14.43;;
42714;SDS011;28351;51.480;5.706;2023-02-15T06:53:41;38.78;;;14.30;;
42714;SDS011;28351;51.480;5.706;2023-02-15T06:56:08;33.58;;;14.35;;
42714;SDS011;28351;51.480;5.706;2023-02-15T06:58:35;35.67;;;14.25;;
42714;SDS011;28351;51.480;5.706;2023-02-15T07:01:02;39.58;;;14.20;;
42714;SDS011;28351;51.480;5.706;2023-02-15T07:03:28;38.20;;;14.23;;
42714;SDS011;28351;51.480;5.706;2023-02-15T07:05:57;36.25;;;12.80;;
42714;SDS011;28351;51.480;5.706;2023-02-15T07:08:24;38.30;;;13.93;;
42714;SDS011;28351;51.480;5.706;2023-02-15T07:10:51;39.72;;;14.27;;
42714;SDS011;28351;51.480;5.706;2023-02-15T07:13:41;36.15;;;13.48;;
42714;SDS011;28351;51.480;5.706;2023-02-15T07:16:07;41.85;;;13.82;;
42714;SDS011;28351;51.480;5.706;2023-02-15T07:18:33;37.33;;;13.80;;
42714;SDS011;28351;51.480;5.706;2023-02-15T07:20:59;39.45;;;14.05;;
42714;SDS011;28351;51.480;5.706;2023-02-15T07:23:24;35.50;;;14.38;;
42714;SDS011;28351;51.480;5.706;2023-02-15T07:25:56;40.63;;;15.02;;
42714;SDS011;28351;51.480;5.706;2023-02-15T07:28:25;45.35;;;16.17;;
42714;SDS011;28351;51.480;5.706;2023-02-15T07:30:50;39.47;;;14.77;;
42714;SDS011;28351;51.480;5.706;2023-02-15T07:33:16;37.22;;;16.17;;
42714;SDS011;28351;51.480;5.706;2023-02-15T07:35:48;35.33;;;14.20;;
42714;SDS011;28351;51.480;5.706;2023-02-15T07:38:25;34.83;;;15.18;;
42714;SDS011;28351;51.480;5.706;2023-02-15T07:41:02;40.17;;;14.95;;
42714;SDS011;28351;51.480;5.706;2023-02-15T07:43:29;43.58;;;16.38;;
42714;SDS011;28351;51.480;5.706;2023-02-15T07:46:01;41.38;;;14.70;;
42714;SDS011;28351;51.480;5.706;2023-02-15T07:48:27;42.00;;;15.10;;
42714;SDS011;28351;51.480;5.706;2023-02-15T07:50:53;43.78;;;16.58;;
42714;SDS011;28351;51.480;5.706;2023-02-15T07:53:19;41.42;;;15.55;;
42714;SDS011;28351;51.480;5.706;2023-02-15T07:55:44;46.65;;;16.45;;
42714;SDS011;28351;51.480;5.706;2023-02-15T07:58:10;42.38;;;16.60;;
42714;SDS011;28351;51.480;5.706;2023-02-15T08:00:36;45.85;;;17.67;;
42714;SDS011;28351;51.480;5.706;2023-02-15T08:03:24;51.10;;;16.75;;
42714;SDS011;28351;51.480;5.706;2023-02-15T08:05:57;51.53;;;17.73;;
42714;SDS011;28351;51.480;5.706;2023-02-15T08:08:24;45.00;;;17.00;;
42714;SDS011;28351;51.480;5.706;2023-02-15T08:11:01;45.88;;;17.83;;
42714;SDS011;28351;51.480;5.706;2023-02-15T08:13:48;47.55;;;17.50;;
42714;SDS011;28351;51.480;5.706;2023-02-15T08:19:08;52.85;;;18.58;;
42714;SDS011;28351;51.480;5.706;2023-02-15T08:21:46;48.38;;;18.58;;
42714;SDS011;28351;51.480;5.706;2023-02-15T08:24:15;57.75;;;19.27;;
42714;SDS011;28351;51.480;5.706;2023-02-15T08:26:43;52.85;;;20.08;;
42714;SDS011;28351;51.480;5.706;2023-02-15T08:29:13;49.20;;;19.42;;
42714;SDS011;28351;51.480;5.706;2023-02-15T08:31:40;62.25;;;22.17;;
42714;SDS011;28351;51.480;5.706;2023-02-15T08:34:08;46.35;;;19.60;;
42714;SDS011;28351;51.480;5.706;2023-02-15T08:36:34;52.57;;;19.73;;
42714;SDS011;28351;51.480;5.706;2023-02-15T08:39:01;60.55;;;21.20;;
42714;SDS011;28351;51.480;5.706;2023-02-15T08:41:29;48.92;;;20.17;;
42714;SDS011;28351;51.480;5.706;2023-02-15T08:43:59;52.05;;;20.27;;
42714;SDS011;28351;51.480;5.706;2023-02-15T08:46:27;58.33;;;20.98;;
42714;SDS011;28351;51.480;5.706;2023-02-15T08:48:54;58.17;;;21.50;;
42714;SDS011;28351;51.480;5.706;2023-02-15T08:51:24;53.55;;;20.80;;
42714;SDS011;28351;51.480;5.706;2023-02-15T08:53:53;61.03;;;22.95;;
42714;SDS011;28351;51.480;5.706;2023-02-15T08:56:21;56.10;;;21.95;;
42714;SDS011;28351;51.480;5.706;2023-02-15T08:58:49;58.20;;;22.35;;
42714;SDS011;28351;51.480;5.706;2023-02-15T09:01:19;57.85;;;21.92;;
42714;SDS011;28351;51.480;5.706;2023-02-15T09:03:47;61.88;;;22.70;;
42714;SDS011;28351;51.480;5.706;2023-02-15T09:06:15;57.80;;;23.88;;
42714;SDS011;28351;51.480;5.706;2023-02-15T09:08:44;55.35;;;22.10;;
42714;SDS011;28351;51.480;5.706;2023-02-15T09:11:14;51.60;;;22.10;;
42714;SDS011;28351;51.480;5.706;2023-02-15T09:13:47;56.90;;;23.17;;
42714;SDS011;28351;51.480;5.706;2023-02-15T09:16:14;56.17;;;22.30;;
42714;SDS011;28351;51.480;5.706;2023-02-15T09:18:42;49.38;;;21.90;;
42714;SDS011;28351;51.480;5.706;2023-02-15T09:21:15;50.70;;;21.33;;
42714;SDS011;28351;51.480;5.706;2023-02-15T09:23:43;51.65;;;21.60;;
42714;SDS011;28351;51.480;5.706;2023-02-15T09:26:11;53.65;;;23.52;;
42714;SDS011;28351;51.480;5.706;2023-02-15T09:28:38;50.05;;;21.63;;
42714;SDS011;28351;51.480;5.706;2023-02-15T09:31:18;51.20;;;19.67;;
42714;SDS011;28351;51.480;5.706;2023-02-15T09:33:46;46.90;;;19.50;;
42714;SDS011;28351;51.480;5.706;2023-02-15T09:36:54;44.25;;;19.45;;
42714;SDS011;28351;51.480;5.706;2023-02-15T09:39:09;45.53;;;19.85;;
42714;SDS011;28351;51.480;5.706;2023-02-15T09:52:14;41.08;;;19.08;;
42714;SDS011;28351;51.480;5.706;2023-02-15T10:00:53;45.90;;;19.30;;
42714;SDS011;28351;51.480;5.706;2023-02-15T10:03:41;38.38;;;18.27;;
42714;SDS011;28351;51.480;5.706;2023-02-15T10:06:28;51.53;;;19.35;;
42714;SDS011;28351;51.480;5.706;2023-02-15T10:15:10;43.13;;;18.40;;
42714;SDS011;28351;51.480;5.706;2023-02-15T10:20:28;42.85;;;19.10;;
42714;SDS011;28351;51.480;5.706;2023-02-15T10:28:50;38.90;;;17.88;;
42714;SDS011;28351;51.480;5.706;2023-02-15T10:31:41;37.25;;;18.13;;
42714;SDS011;28351;51.480;5.706;2023-02-15T10:42:50;43.03;;;18.23;;
42714;SDS011;28351;51.480;5.706;2023-02-15T10:45:25;40.42;;;18.40;;
42714;SDS011;28351;51.480;5.706;2023-02-15T10:50:55;39.85;;;17.70;;
42714;SDS011;28351;51.480;5.706;2023-02-15T11:10:15;37.38;;;18.50;;
42714;SDS011;28351;51.480;5.706;2023-02-15T11:12:42;42.67;;;19.20;;
42714;SDS011;28351;51.480;5.706;2023-02-15T11:17:51;34.60;;;17.35;;
42714;SDS011;28351;51.480;5.706;2023-02-15T11:20:27;39.72;;;18.15;;
42714;SDS011;28351;51.480;5.706;2023-02-15T11:23:22;38.38;;;18.45;;
42714;SDS011;28351;51.480;5.706;2023-02-15T11:26:03;35.17;;;17.25;;
42714;SDS011;28351;51.480;5.706;2023-02-15T11:28:33;36.80;;;17.40;;
42714;SDS011;28351;51.480;5.706;2023-02-15T11:31:11;34.70;;;17.33;;
42714;SDS011;28351;51.480;5.706;2023-02-15T11:33:44;38.50;;;17.15;;
42714;SDS011;28351;51.480;5.706;2023-02-15T11:36:20;34.28;;;17.85;;
42714;SDS011;28351;51.480;5.706;2023-02-15T11:38:50;37.63;;;17.38;;
42714;SDS011;28351;51.480;5.706;2023-02-15T11:41:28;34.35;;;17.50;;
42714;SDS011;28351;51.480;5.706;2023-02-15T11:46:27;35.17;;;16.73;;
42714;SDS011;28351;51.480;5.706;2023-02-15T11:48:53;34.13;;;17.13;;
42714;SDS011;28351;51.480;5.706;2023-02-15T11:51:21;34.72;;;17.58;;
42714;SDS011;28351;51.480;5.706;2023-02-15T11:53:47;37.42;;;17.63;;
42714;SDS011;28351;51.480;5.706;2023-02-15T11:56:18;31.60;;;17.10;;
42714;SDS011;28351;51.480;5.706;2023-02-15T11:59:30;32.00;;;16.85;;
42714;SDS011;28351;51.480;5.706;2023-02-15T12:01:45;37.42;;;17.58;;
42714;SDS011;28351;51.480;5.706;2023-02-15T12:04:22;33.30;;;17.58;;
42714;SDS011;28351;51.480;5.706;2023-02-15T12:06:56;30.60;;;16.67;;
42714;SDS011;28351;51.480;5.706;2023-02-15T12:09:40;32.58;;;17.67;;
42714;SDS011;28351;51.480;5.706;2023-02-15T12:12:30;33.47;;;18.33;;
42714;SDS011;28351;51.480;5.706;2023-02-15T12:14:58;30.65;;;17.13;;
42714;SDS011;28351;51.480;5.706;2023-02-15T12:17:27;33.70;;;17.65;;
42714;SDS011;28351;51.480;5.706;2023-02-15T12:22:40;31.20;;;17.20;;
42714;SDS011;28351;51.480;5.706;2023-02-15T12:25:49;31.73;;;17.65;;
42714;SDS011;28351;51.480;5.706;2023-02-15T12:28:40;29.98;;;17.25;;
42714;SDS011;28351;51.480;5.706;2023-02-15T12:31:20;32.00;;;17.48;;
42714;SDS011;28351;51.480;5.706;2023-02-15T12:33:47;32.00;;;17.13;;
42714;SDS011;28351;51.480;5.706;2023-02-15T12:36:19;29.25;;;16.25;;
42714;SDS011;28351;51.480;5.706;2023-02-15T12:41:38;30.52;;;16.58;;
42714;SDS011;28351;51.480;5.706;2023-02-15T12:44:19;33.60;;;15.98;;
42714;SDS011;28351;51.480;5.706;2023-02-15T12:49:33;30.63;;;15.85;;
42714;SDS011;28351;51.480;5.706;2023-02-15T12:52:03;31.90;;;15.73;;
42714;SDS011;28351;51.480;5.706;2023-02-15T12:54:37;30.35;;;15.63;;
42714;SDS011;28351;51.480;5.706;2023-02-15T13:05:29;32.75;;;16.77;;
42714;SDS011;28351;51.480;5.706;2023-02-15T13:07:56;36.33;;;16.92;;
42714;SDS011;28351;51.480;5.706;2023-02-15T13:10:33;31.42;;;16.65;;
42714;SDS011;28351;51.480;5.706;2023-02-15T13:13:02;30.65;;;15.77;;
42714;SDS011;28351;51.480;5.706;2023-02-15T13:15:36;31.90;;;16.50;;
42714;SDS011;28351;51.480;5.706;2023-02-15T13:18:42;33.08;;;16.02;;
42714;SDS011;28351;51.480;5.706;2023-02-15T13:21:11;31.10;;;15.48;;
42714;SDS011;28351;51.480;5.706;2023-02-15T13:23:57;33.22;;;16.77;;
42714;SDS011;28351;51.480;5.706;2023-02-15T13:26:31;32.17;;;16.67;;
42714;SDS011;28351;51.480;5.706;2023-02-15T13:29:10;33.00;;;17.02;;
42714;SDS011;28351;51.480;5.706;2023-02-15T13:31:42;30.45;;;16.10;;
42714;SDS011;28351;51.480;5.706;2023-02-15T13:34:15;31.20;;;15.68;;
42714;SDS011;28351;51.480;5.706;2023-02-15T13:36:50;30.85;;;15.63;;
42714;SDS011;28351;51.480;5.706;2023-02-15T13:39:22;30.60;;;15.60;;
42714;SDS011;28351;51.480;5.706;2023-02-15T13:54:02;32.70;;;16.33;;
42714;SDS011;28351;51.480;5.706;2023-02-15T13:59:54;27.85;;;14.07;;
42714;SDS011;28351;51.480;5.706;2023-02-15T14:11:52;28.15;;;13.77;;
42714;SDS011;28351;51.480;5.706;2023-02-15T14:14:11;31.67;;;13.85;;
42714;SDS011;28351;51.480;5.706;2023-02-15T14:27:59;32.60;;;14.40;;
42714;SDS011;28351;51.480;5.706;2023-02-15T14:30:34;31.23;;;13.90;;
42714;SDS011;28351;51.480;5.706;2023-02-15T14:33:05;32.30;;;13.57;;
42714;SDS011;28351;51.480;5.706;2023-02-15T14:35:32;29.23;;;13.25;;
42714;SDS011;28351;51.480;5.706;2023-02-15T14:48:58;32.60;;;14.63;;
42714;SDS011;28351;51.480;5.706;2023-02-15T14:59:18;34.53;;;14.97;;
42714;SDS011;28351;51.480;5.706;2023-02-15T15:02:39;35.17;;;14.98;;
42714;SDS011;28351;51.480;5.706;2023-02-15T15:05:32;30.77;;;14.05;;
42714;SDS011;28351;51.480;5.706;2023-02-15T15:07:44;33.78;;;14.45;;
42714;SDS011;28351;51.480;5.706;2023-02-15T15:12:50;35.58;;;13.68;;
42714;SDS011;28351;51.480;5.706;2023-02-15T15:22:50;33.90;;;14.80;;
42714;SDS011;28351;51.480;5.706;2023-02-15T15:36:53;35.20;;;15.32;;
42714;SDS011;28351;51.480;5.706;2023-02-15T15:42:48;35.38;;;15.00;;
42714;SDS011;28351;51.480;5.706;2023-02-15T15:51:06;36.75;;;15.80;;
42714;SDS011;28351;51.480;5.706;2023-02-15T15:53:44;33.42;;;15.95;;
42714;SDS011;28351;51.480;5.706;2023-02-15T15:56:18;37.35;;;15.65;;
42714;SDS011;28351;51.480;5.706;2023-02-15T15:58:48;37.22;;;16.42;;
42714;SDS011;28351;51.480;5.706;2023-02-15T16:01:24;35.05;;;15.60;;
42714;SDS011;28351;51.480;5.706;2023-02-15T16:03:56;32.70;;;15.68;;
42714;SDS011;28351;51.480;5.706;2023-02-15T16:09:17;39.50;;;17.15;;
42714;SDS011;28351;51.480;5.706;2023-02-15T16:11:52;33.15;;;15.75;;
42714;SDS011;28351;51.480;5.706;2023-02-15T16:14:28;33.58;;;15.75;;
42714;SDS011;28351;51.480;5.706;2023-02-15T16:16:55;33.42;;;15.20;;
42714;SDS011;28351;51.480;5.706;2023-02-15T16:19:27;33.55;;;15.70;;
42714;SDS011;28351;51.480;5.706;2023-02-15T16:21:57;33.03;;;15.25;;
42714;SDS011;28351;51.480;5.706;2023-02-15T16:27:31;34.80;;;15.50;;
42714;SDS011;28351;51.480;5.706;2023-02-15T16:29:58;36.67;;;15.38;;
42714;SDS011;28351;51.480;5.706;2023-02-15T16:32:35;36.30;;;16.42;;
42714;SDS011;28351;51.480;5.706;2023-02-15T16:35:02;40.05;;;16.98;;
42714;SDS011;28351;51.480;5.706;2023-02-15T16:37:32;36.45;;;16.50;;
42714;SDS011;28351;51.480;5.706;2023-02-15T16:39:59;35.05;;;16.23;;
42714;SDS011;28351;51.480;5.706;2023-02-15T16:42:25;36.75;;;15.65;;
42714;SDS011;28351;51.480;5.706;2023-02-15T16:44:51;37.08;;;16.92;;
42714;SDS011;28351;51.480;5.706;2023-02-15T16:47:28;36.13;;;16.23;;
42714;SDS011;28351;51.480;5.706;2023-02-15T16:49:57;33.58;;;16.27;;
42714;SDS011;28351;51.480;5.706;2023-02-15T16:52:26;35.03;;;15.88;;
42714;SDS011;28351;51.480;5.706;2023-02-15T16:54:57;39.33;;;16.05;;
42714;SDS011;28351;51.480;5.706;2023-02-15T16:57:26;36.72;;;16.77;;
42714;SDS011;28351;51.480;5.706;2023-02-15T17:00:14;35.35;;;15.20;;
42714;SDS011;28351;51.480;5.706;2023-02-15T17:02:55;34.20;;;16.27;;
42714;SDS011;28351;51.480;5.706;2023-02-15T17:05:28;34.72;;;15.95;;
42714;SDS011;28351;51.480;5.706;2023-02-15T17:10:41;33.85;;;15.07;;
42714;SDS011;28351;51.480;5.706;2023-02-15T17:15:38;34.58;;;15.10;;
42714;SDS011;28351;51.480;5.706;2023-02-15T17:20:43;40.22;;;16.58;;
42714;SDS011;28351;51.480;5.706;2023-02-15T17:25:53;34.97;;;15.27;;
42714;SDS011;28351;51.480;5.706;2023-02-15T17:28:21;35.80;;;16.08;;
42714;SDS011;28351;51.480;5.706;2023-02-15T17:30:49;38.92;;;17.63;;
42714;SDS011;28351;51.480;5.706;2023-02-15T17:36:03;37.55;;;16.42;;
42714;SDS011;28351;51.480;5.706;2023-02-15T17:41:22;40.55;;;16.73;;
42714;SDS011;28351;51.480;5.706;2023-02-15T17:43:52;39.63;;;17.40;;
42714;SDS011;28351;51.480;5.706;2023-02-15T17:46:17;33.83;;;16.23;;
42714;SDS011;28351;51.480;5.706;2023-02-15T17:48:50;37.58;;;17.63;;
42714;SDS011;28351;51.480;5.706;2023-02-15T17:51:18;40.08;;;18.17;;
42714;SDS011;28351;51.480;5.706;2023-02-15T17:53:45;41.20;;;17.05;;
42714;SDS011;28351;51.480;5.706;2023-02-15T17:56:30;38.58;;;17.65;;
42714;SDS011;28351;51.480;5.706;2023-02-15T17:58:59;44.45;;;17.98;;
42714;SDS011;28351;51.480;5.706;2023-02-15T18:01:24;42.97;;;19.27;;
42714;SDS011;28351;51.480;5.706;2023-02-15T18:04:14;42.38;;;18.50;;
42714;SDS011;28351;51.480;5.706;2023-02-15T18:06:58;39.65;;;17.58;;
42714;SDS011;28351;51.480;5.706;2023-02-15T18:09:43;37.10;;;18.08;;
42714;SDS011;28351;51.480;5.706;2023-02-15T18:12:28;40.22;;;19.20;;
42714;SDS011;28351;51.480;5.706;2023-02-15T18:14:55;43.55;;;18.70;;
42714;SDS011;28351;51.480;5.706;2023-02-15T18:17:23;42.28;;;19.20;;
42714;SDS011;28351;51.480;5.706;2023-02-15T18:19:53;42.63;;;19.13;;
42714;SDS011;28351;51.480;5.706;2023-02-15T18:22:19;39.00;;;18.83;;